sensor_id;sensor_type;location;lat;lon;timestamp;pressure;altitude;pressure_sealevel;temperature;humidity
7075;BME280;3578;51.568;6.932;2023-04-25T00:02:15;51164.44;;;-144.14;96.34
7075;BME280;3578;51.568;6.932;2023-04-25T00:04:42;51158.44;;;-144.14;96.36
7075;BME280;3578;51.568;6.932;2023-04-25T00:07:09;51166.47;;;-144.14;96.57
7075;BME280;3578;51.568;6.932;2023-04-25T00:09:36;51206.50;;;-144.14;96.37
7075;BME280;3578;51.568;6.932;2023-04-25T00:12:03;51194.50;;;-144.14;96.26
7075;BME280;3578;51.568;6.932;2023-04-25T00:14:31;51204.50;;;-144.14;96.63
7075;BME280;3578;51.568;6.932;2023-04-25T00:16:59;51194.50;;;-144.14;96.41
7075;BME280;3578;51.568;6.932;2023-04-25T00:19:28;51204.50;;;-144.14;96.79
7075;BME280;3578;51.568;6.932;2023-04-25T00:21:55;51206.50;;;-144.14;96.57
7075;BME280;3578;51.568;6.932;2023-04-25T00:24:22;51242.56;;;-144.14;96.57
7075;BME280;3578;51.568;6.932;2023-04-25T00:26:49;51214.53;;;-144.14;96.65
7075;BME280;3578;51.568;6.932;2023-04-25T00:29:15;51214.53;;;-144.14;96.94
7075;BME280;3578;51.568;6.932;2023-04-25T00:31:42;51170.47;;;-144.14;97.26
7075;BME280;3578;51.568;6.932;2023-04-25T00:34:09;51096.34;;;-144.14;97.81
7075;BME280;3578;51.568;6.932;2023-04-25T00:36:38;51084.34;;;-144.14;98.16
7075;BME280;3578;51.568;6.932;2023-04-25T00:39:05;51102.38;;;-144.14;98.19
7075;BME280;3578;51.568;6.932;2023-04-25T00:41:33;51050.28;;;-144.14;98.36
7075;BME280;3578;51.568;6.932;2023-04-25T00:44:01;51076.31;;;-144.14;97.78
7075;BME280;3578;51.568;6.932;2023-04-25T00:46:29;50974.19;;;-144.14;99.01
7075;BME280;3578;51.568;6.932;2023-04-25T00:48:56;51040.28;;;-144.14;98.26
7075;BME280;3578;51.568;6.932;2023-04-25T00:51:23;51032.28;;;-144.14;98.08
7075;BME280;3578;51.568;6.932;2023-04-25T00:53:54;51068.31;;;-144.14;98.13
7075;BME280;3578;51.568;6.932;2023-04-25T00:56:21;51034.28;;;-144.14;98.40
7075;BME280;3578;51.568;6.932;2023-04-25T00:58:48;51022.25;;;-144.14;98.19
7075;BME280;3578;51.568;6.932;2023-04-25T01:01:16;50998.22;;;-144.14;98.50
7075;BME280;3578;51.568;6.932;2023-04-25T01:03:43;50982.19;;;-144.14;98.51
7075;BME280;3578;51.568;6.932;2023-04-25T01:06:13;51008.22;;;-144.14;98.50
7075;BME280;3578;51.568;6.932;2023-04-25T01:08:40;51012.25;;;-144.14;98.31
7075;BME280;3578;51.568;6.932;2023-04-25T01:11:09;50996.22;;;-144.14;98.82
7075;BME280;3578;51.568;6.932;2023-04-25T01:13:36;51024.25;;;-144.14;98.37
7075;BME280;3578;51.568;6.932;2023-04-25T01:16:03;51014.25;;;-144.14;98.35
7075;BME280;3578;51.568;6.932;2023-04-25T01:18:30;51014.25;;;-144.14;98.15
7075;BME280;3578;51.568;6.932;2023-04-25T01:21:06;51062.31;;;-144.14;98.00
7075;BME280;3578;51.568;6.932;2023-04-25T01:23:33;51018.25;;;-144.14;98.44
7075;BME280;3578;51.568;6.932;2023-04-25T01:26:01;51040.28;;;-144.14;98.37
7075;BME280;3578;51.568;6.932;2023-04-25T01:28:28;51006.22;;;-144.14;98.67
7075;BME280;3578;51.568;6.932;2023-04-25T01:30:56;51032.28;;;-144.14;98.39
7075;BME280;3578;51.568;6.932;2023-04-25T01:33:23;51046.28;;;-144.14;98.45
7075;BME280;3578;51.568;6.932;2023-04-25T01:35:50;51018.25;;;-144.14;98.39
7075;BME280;3578;51.568;6.932;2023-04-25T01:38:19;50994.22;;;-144.14;98.48
7075;BME280;3578;51.568;6.932;2023-04-25T01:40:46;51070.31;;;-144.14;97.92
7075;BME280;3578;51.568;6.932;2023-04-25T01:43:15;51046.28;;;-144.14;98.34
7075;BME280;3578;51.568;6.932;2023-04-25T01:45:42;51022.25;;;-144.14;98.63
7075;BME280;3578;51.568;6.932;2023-04-25T01:48:12;50998.22;;;-144.14;98.36
7075;BME280;3578;51.568;6.932;2023-04-25T01:50:41;51024.25;;;-144.14;98.31
7075;BME280;3578;51.568;6.932;2023-04-25T01:53:09;51030.25;;;-144.14;98.27
7075;BME280;3578;51.568;6.932;2023-04-25T01:55:39;51002.22;;;-144.14;98.64
7075;BME280;3578;51.568;6.932;2023-04-25T01:58:06;50988.22;;;-144.14;98.98
7075;BME280;3578;51.568;6.932;2023-04-25T02:00:35;50896.09;;;-144.14;99.41
7075;BME280;3578;51.568;6.932;2023-04-25T02:03:03;50910.09;;;-144.14;99.36
7075;BME280;3578;51.568;6.932;2023-04-25T02:05:34;50870.03;;;-144.14;99.49
7075;BME280;3578;51.568;6.932;2023-04-25T02:08:02;50904.09;;;-144.14;99.31
7075;BME280;3578;51.568;6.932;2023-04-25T02:10:29;50773.91;;;-144.14;99.87
7075;BME280;3578;51.568;6.932;2023-04-25T02:12:58;50737.88;;;-144.14;100.00
7075;BME280;3578;51.568;6.932;2023-04-25T02:15:25;50741.88;;;-144.14;100.00
7075;BME280;3578;51.568;6.932;2023-04-25T02:17:52;50659.78;;;-144.14;100.00
7075;BME280;3578;51.568;6.932;2023-04-25T02:20:21;50637.75;;;-144.14;100.00
7075;BME280;3578;51.568;6.932;2023-04-25T02:22:48;50545.63;;;-144.14;100.00
7075;BME280;3578;51.568;6.932;2023-04-25T02:25:15;50507.59;;;-144.14;100.00
7075;BME280;3578;51.568;6.932;2023-04-25T02:27:42;50561.66;;;-144.14;100.00
7075;BME280;3578;51.568;6.932;2023-04-25T02:30:11;50571.66;;;-144.14;100.00
7075;BME280;3578;51.568;6.932;2023-04-25T02:32:39;50529.59;;;-144.14;100.00
7075;BME280;3578;51.568;6.932;2023-04-25T02:35:07;50457.53;;;-144.14;100.00
7075;BME280;3578;51.568;6.932;2023-04-25T02:37:36;50427.47;;;-144.14;100.00
7075;BME280;3578;51.568;6.932;2023-04-25T02:40:04;50435.50;;;-144.14;100.00
7075;BME280;3578;51.568;6.932;2023-04-25T02:42:32;50409.47;;;-144.14;100.00
7075;BME280;3578;51.568;6.932;2023-04-25T02:44:59;50457.53;;;-144.14;100.00
7075;BME280;3578;51.568;6.932;2023-04-25T02:47:28;50505.56;;;-144.14;100.00
7075;BME280;3578;51.568;6.932;2023-04-25T02:49:55;50459.53;;;-144.14;100.00
7075;BME280;3578;51.568;6.932;2023-04-25T02:52:22;50379.44;;;-144.14;100.00
7075;BME280;3578;51.568;6.932;2023-04-25T02:54:49;50357.41;;;-144.14;100.00
7075;BME280;3578;51.568;6.932;2023-04-25T02:57:16;50427.47;;;-144.14;100.00
7075;BME280;3578;51.568;6.932;2023-04-25T02:59:43;50443.50;;;-144.14;100.00
7075;BME280;3578;51.568;6.932;2023-04-25T03:02:10;50495.56;;;-144.14;100.00
7075;BME280;3578;51.568;6.932;2023-04-25T03:04:38;50505.56;;;-144.14;100.00
7075;BME280;3578;51.568;6.932;2023-04-25T03:07:05;50483.56;;;-144.14;100.00
7075;BME280;3578;51.568;6.932;2023-04-25T03:09:32;50467.53;;;-144.14;100.00
7075;BME280;3578;51.568;6.932;2023-04-25T03:11:59;50455.50;;;-144.14;100.00
7075;BME280;3578;51.568;6.932;2023-04-25T03:14:27;50415.47;;;-144.14;100.00
7075;BME280;3578;51.568;6.932;2023-04-25T03:16:54;50407.47;;;-144.14;100.00
7075;BME280;3578;51.568;6.932;2023-04-25T03:19:21;50455.50;;;-144.14;100.00
7075;BME280;3578;51.568;6.932;2023-04-25T03:21:49;50435.50;;;-144.14;100.00
7075;BME280;3578;51.568;6.932;2023-04-25T03:24:16;50511.59;;;-144.14;100.00
7075;BME280;3578;51.568;6.932;2023-04-25T03:26:43;50401.44;;;-144.14;100.00
7075;BME280;3578;51.568;6.932;2023-04-25T03:29:10;50327.38;;;-144.14;100.00
7075;BME280;3578;51.568;6.932;2023-04-25T03:31:37;50289.31;;;-144.14;100.00
7075;BME280;3578;51.568;6.932;2023-04-25T03:34:04;50263.28;;;-144.14;100.00
7075;BME280;3578;51.568;6.932;2023-04-25T03:36:31;50241.25;;;-144.14;100.00
7075;BME280;3578;51.568;6.932;2023-04-25T03:38:59;50265.28;;;-144.14;100.00
7075;BME280;3578;51.568;6.932;2023-04-25T03:41:27;50273.31;;;-144.14;100.00
7075;BME280;3578;51.568;6.932;2023-04-25T03:43:54;50235.25;;;-144.14;100.00
7075;BME280;3578;51.568;6.932;2023-04-25T03:46:21;50247.28;;;-144.14;100.00
7075;BME280;3578;51.568;6.932;2023-04-25T03:48:48;50287.31;;;-144.14;100.00
7075;BME280;3578;51.568;6.932;2023-04-25T03:51:15;50269.28;;;-144.14;100.00
7075;BME280;3578;51.568;6.932;2023-04-25T03:53:43;50211.22;;;-144.14;100.00
7075;BME280;3578;51.568;6.932;2023-04-25T03:56:11;50209.22;;;-144.14;100.00
7075;BME280;3578;51.568;6.932;2023-04-25T03:58:38;50203.22;;;-144.14;100.00
7075;BME280;3578;51.568;6.932;2023-04-25T04:01:05;50261.28;;;-144.14;100.00
7075;BME280;3578;51.568;6.932;2023-04-25T04:03:33;50373.41;;;-144.14;100.00
7075;BME280;3578;51.568;6.932;2023-04-25T04:06:01;50501.56;;;-144.14;100.00
7075;BME280;3578;51.568;6.932;2023-04-25T04:08:29;50631.72;;;-144.14;99.20
7075;BME280;3578;51.568;6.932;2023-04-25T04:10:57;50729.88;;;-144.14;98.74
7075;BME280;3578;51.568;6.932;2023-04-25T04:13:27;50643.75;;;-144.14;99.50
7075;BME280;3578;51.568;6.932;2023-04-25T04:15:55;50533.63;;;-144.14;100.00
7075;BME280;3578;51.568;6.932;2023-04-25T04:18:23;50435.50;;;-144.14;100.00
7075;BME280;3578;51.568;6.932;2023-04-25T04:20:50;50317.34;;;-144.14;100.00
7075;BME280;3578;51.568;6.932;2023-04-25T04:23:16;50345.38;;;-144.14;100.00
7075;BME280;3578;51.568;6.932;2023-04-25T04:25:44;50355.41;;;-144.14;100.00
7075;BME280;3578;51.568;6.932;2023-04-25T04:28:11;50361.41;;;-144.14;100.00
7075;BME280;3578;51.568;6.932;2023-04-25T04:30:40;50225.25;;;-144.14;100.00
7075;BME280;3578;51.568;6.932;2023-04-25T04:33:08;50199.22;;;-144.14;100.00
7075;BME280;3578;51.568;6.932;2023-04-25T04:35:35;50201.22;;;-144.14;100.00
7075;BME280;3578;51.568;6.932;2023-04-25T04:38:02;50181.19;;;-144.14;100.00
7075;BME280;3578;51.568;6.932;2023-04-25T04:40:29;50149.16;;;-144.14;100.00
7075;BME280;3578;51.568;6.932;2023-04-25T04:42:56;50115.13;;;-144.14;100.00
7075;BME280;3578;51.568;6.932;2023-04-25T04:45:24;50139.16;;;-144.14;100.00
7075;BME280;3578;51.568;6.932;2023-04-25T04:47:52;50161.16;;;-144.14;100.00
7075;BME280;3578;51.568;6.932;2023-04-25T04:50:21;50107.09;;;-144.14;100.00
7075;BME280;3578;51.568;6.932;2023-04-25T04:52:48;50113.13;;;-144.14;100.00
7075;BME280;3578;51.568;6.932;2023-04-25T04:55:15;50085.09;;;-144.14;100.00
7075;BME280;3578;51.568;6.932;2023-04-25T04:57:42;50033.03;;;-144.14;100.00
7075;BME280;3578;51.568;6.932;2023-04-25T05:00:11;50071.06;;;-144.14;100.00
7075;BME280;3578;51.568;6.932;2023-04-25T05:02:38;50095.09;;;-144.14;100.00
7075;BME280;3578;51.568;6.932;2023-04-25T05:05:08;50101.09;;;-144.14;100.00
7075;BME280;3578;51.568;6.932;2023-04-25T05:07:35;50125.13;;;-144.14;100.00
7075;BME280;3578;51.568;6.932;2023-04-25T05:10:02;50167.19;;;-144.14;100.00
7075;BME280;3578;51.568;6.932;2023-04-25T05:12:29;50225.25;;;-144.14;100.00
7075;BME280;3578;51.568;6.932;2023-04-25T05:14:56;50337.38;;;-144.14;100.00
7075;BME280;3578;51.568;6.932;2023-04-25T05:17:23;50349.38;;;-144.14;100.00
7075;BME280;3578;51.568;6.932;2023-04-25T05:19:50;50367.41;;;-144.14;100.00
7075;BME280;3578;51.568;6.932;2023-04-25T05:22:18;50407.47;;;-144.14;100.00
7075;BME280;3578;51.568;6.932;2023-04-25T05:24:45;50487.56;;;-144.14;100.00
7075;BME280;3578;51.568;6.932;2023-04-25T05:27:15;50525.59;;;-144.14;99.82
7075;BME280;3578;51.568;6.932;2023-04-25T05:29:42;50551.63;;;-144.14;99.80
7075;BME280;3578;51.568;6.932;2023-04-25T05:32:09;50601.69;;;-144.14;99.42
7075;BME280;3578;51.568;6.932;2023-04-25T05:34:36;50607.69;;;-144.14;99.35
7075;BME280;3578;51.568;6.932;2023-04-25T05:37:03;50623.72;;;-144.14;99.16
7075;BME280;3578;51.568;6.932;2023-04-25T05:39:32;50651.75;;;-144.14;99.14
7075;BME280;3578;51.568;6.932;2023-04-25T05:41:59;50665.78;;;-144.14;98.99
7075;BME280;3578;51.568;6.932;2023-04-25T05:44:27;50755.91;;;-144.14;98.26
7075;BME280;3578;51.568;6.932;2023-04-25T05:46:54;50745.88;;;-144.14;98.50
7075;BME280;3578;51.568;6.932;2023-04-25T05:49:21;50721.84;;;-144.14;98.58
7075;BME280;3578;51.568;6.932;2023-04-25T05:51:48;50751.88;;;-144.14;98.29
7075;BME280;3578;51.568;6.932;2023-04-25T05:54:15;50763.91;;;-144.14;97.91
7075;BME280;3578;51.568;6.932;2023-04-25T05:56:43;50840.00;;;-144.14;97.49
7075;BME280;3578;51.568;6.932;2023-04-25T05:59:10;50888.06;;;-144.14;96.79
7075;BME280;3578;51.568;6.932;2023-04-25T06:01:37;50880.06;;;-144.14;96.84
7075;BME280;3578;51.568;6.932;2023-04-25T06:04:05;50998.22;;;-144.14;95.58
7075;BME280;3578;51.568;6.932;2023-04-25T06:06:32;50978.19;;;-144.14;96.09
7075;BME280;3578;51.568;6.932;2023-04-25T06:08:59;51110.38;;;-144.14;93.98
7075;BME280;3578;51.568;6.932;2023-04-25T06:11:26;51246.56;;;-144.14;92.54
7075;BME280;3578;51.568;6.932;2023-04-25T06:13:54;51254.59;;;-144.14;92.24
7075;BME280;3578;51.568;6.932;2023-04-25T06:16:21;51328.69;;;-144.14;92.13
7075;BME280;3578;51.568;6.932;2023-04-25T06:18:51;51286.63;;;-144.14;92.81
7075;BME280;3578;51.568;6.932;2023-04-25T06:21:18;51354.72;;;-144.14;91.82
7075;BME280;3578;51.568;6.932;2023-04-25T06:23:45;51328.69;;;-144.14;92.14
7075;BME280;3578;51.568;6.932;2023-04-25T06:26:12;51296.66;;;-144.14;92.86
7075;BME280;3578;51.568;6.932;2023-04-25T06:28:39;51352.72;;;-144.14;92.59
7075;BME280;3578;51.568;6.932;2023-04-25T06:31:08;51262.59;;;-144.14;93.47
7075;BME280;3578;51.568;6.932;2023-04-25T06:33:35;51242.56;;;-144.14;94.41
7075;BME280;3578;51.568;6.932;2023-04-25T06:36:02;51226.53;;;-144.14;94.17
7075;BME280;3578;51.568;6.932;2023-04-25T06:38:29;51240.56;;;-144.14;94.02
7075;BME280;3578;51.568;6.932;2023-04-25T06:40:56;51202.50;;;-144.14;94.75
7075;BME280;3578;51.568;6.932;2023-04-25T06:43:23;51164.44;;;-144.14;96.23
7075;BME280;3578;51.568;6.932;2023-04-25T06:45:51;51150.44;;;-144.14;96.28
7075;BME280;3578;51.568;6.932;2023-04-25T06:48:19;51142.41;;;-144.14;95.82
7075;BME280;3578;51.568;6.932;2023-04-25T06:50:46;51128.41;;;-144.14;95.87
7075;BME280;3578;51.568;6.932;2023-04-25T06:53:13;51076.31;;;-144.14;97.23
7075;BME280;3578;51.568;6.932;2023-04-25T06:55:40;51018.25;;;-144.14;97.95
7075;BME280;3578;51.568;6.932;2023-04-25T06:58:07;51054.28;;;-144.14;97.04
7075;BME280;3578;51.568;6.932;2023-04-25T07:00:34;51086.34;;;-144.14;96.35
7075;BME280;3578;51.568;6.932;2023-04-25T07:03:01;51134.41;;;-144.14;95.79
7075;BME280;3578;51.568;6.932;2023-04-25T07:05:30;51156.44;;;-144.14;95.08
7075;BME280;3578;51.568;6.932;2023-04-25T07:07:56;51258.59;;;-144.14;93.71
7075;BME280;3578;51.568;6.932;2023-04-25T07:10:23;51216.53;;;-144.14;94.27
7075;BME280;3578;51.568;6.932;2023-04-25T07:12:51;51264.59;;;-144.14;94.03
7075;BME280;3578;51.568;6.932;2023-04-25T07:15:18;51384.78;;;-144.14;91.00
7075;BME280;3578;51.568;6.932;2023-04-25T07:17:45;51382.78;;;-144.14;90.88
7075;BME280;3578;51.568;6.932;2023-04-25T07:20:12;51388.78;;;-144.14;92.19
7075;BME280;3578;51.568;6.932;2023-04-25T07:22:41;51779.38;;;-144.14;84.03
7075;BME280;3578;51.568;6.932;2023-04-25T07:25:09;52063.84;;;-144.14;82.30
7075;BME280;3578;51.568;6.932;2023-04-25T07:27:36;52500.63;;;-144.14;73.07
7075;BME280;3578;51.568;6.932;2023-04-25T07:30:04;52879.34;;;-144.14;64.74
7075;BME280;3578;51.568;6.932;2023-04-25T07:32:31;53177.94;;;-144.14;58.46
7075;BME280;3578;51.568;6.932;2023-04-25T07:34:58;53250.06;;;-144.14;55.42
7075;BME280;3578;51.568;6.932;2023-04-25T07:37:25;53260.09;;;-144.14;63.76
7075;BME280;3578;51.568;6.932;2023-04-25T07:39:54;53466.53;;;-144.14;55.34
7075;BME280;3578;51.568;6.932;2023-04-25T07:42:20;53454.50;;;-144.14;57.67
7075;BME280;3578;51.568;6.932;2023-04-25T07:44:47;53454.50;;;-144.14;57.71
7075;BME280;3578;51.568;6.932;2023-04-25T07:47:14;53648.91;;;-144.14;56.87
7075;BME280;3578;51.568;6.932;2023-04-25T07:49:41;54218.19;;;-144.14;49.84
7075;BME280;3578;51.568;6.932;2023-04-25T07:52:08;55106.38;;;-144.14;41.33
7075;BME280;3578;51.568;6.932;2023-04-25T07:54:35;55204.63;;;-144.14;38.37
7075;BME280;3578;51.568;6.932;2023-04-25T07:57:04;54881.78;;;-144.14;41.74
7075;BME280;3578;51.568;6.932;2023-04-25T07:59:32;54452.75;;;-144.14;43.79
7075;BME280;3578;51.568;6.932;2023-04-25T08:02:00;54226.22;;;-144.14;49.49
7075;BME280;3578;51.568;6.932;2023-04-25T08:04:28;54051.81;;;-144.14;52.52
7075;BME280;3578;51.568;6.932;2023-04-25T08:06:55;53965.59;;;-144.14;58.29
7075;BME280;3578;51.568;6.932;2023-04-25T08:09:22;53843.34;;;-144.14;58.53
7075;BME280;3578;51.568;6.932;2023-04-25T08:11:49;53867.38;;;-144.14;54.75
7075;BME280;3578;51.568;6.932;2023-04-25T08:14:17;53883.44;;;-144.14;57.00
7075;BME280;3578;51.568;6.932;2023-04-25T08:16:44;53843.34;;;-144.14;56.81
7075;BME280;3578;51.568;6.932;2023-04-25T08:19:11;53879.41;;;-144.14;57.29
7075;BME280;3578;51.568;6.932;2023-04-25T08:21:38;53855.38;;;-144.14;57.52
7075;BME280;3578;51.568;6.932;2023-04-25T08:24:06;53961.59;;;-144.14;61.07
7075;BME280;3578;51.568;6.932;2023-04-25T08:26:33;54035.75;;;-144.14;59.69
7075;BME280;3578;51.568;6.932;2023-04-25T08:29:00;54041.78;;;-144.14;50.07
7075;BME280;3578;51.568;6.932;2023-04-25T08:31:28;54039.78;;;-144.14;53.56
7075;BME280;3578;51.568;6.932;2023-04-25T08:33:55;54011.72;;;-144.14;52.54
7075;BME280;3578;51.568;6.932;2023-04-25T08:36:22;54077.88;;;-144.14;50.01
7075;BME280;3578;51.568;6.932;2023-04-25T08:38:49;54184.09;;;-144.14;52.78
7075;BME280;3578;51.568;6.932;2023-04-25T08:41:17;54194.13;;;-144.14;45.41
7075;BME280;3578;51.568;6.932;2023-04-25T08:43:49;54228.22;;;-144.14;48.00
7075;BME280;3578;51.568;6.932;2023-04-25T08:46:18;54350.50;;;-144.14;46.96
7075;BME280;3578;51.568;6.932;2023-04-25T08:48:47;54348.50;;;-144.14;46.68
7075;BME280;3578;51.568;6.932;2023-04-25T08:51:21;54310.41;;;-144.14;48.88
7075;BME280;3578;51.568;6.932;2023-04-25T08:53:50;54282.34;;;-144.14;47.54
7075;BME280;3578;51.568;6.932;2023-04-25T08:56:18;54230.22;;;-144.14;46.40
7075;BME280;3578;51.568;6.932;2023-04-25T08:58:48;54284.34;;;-144.14;44.77
7075;BME280;3578;51.568;6.932;2023-04-25T09:01:16;54312.41;;;-144.14;44.97
7075;BME280;3578;51.568;6.932;2023-04-25T09:03:44;54300.38;;;-144.14;44.08
7075;BME280;3578;51.568;6.932;2023-04-25T09:06:14;54172.09;;;-144.14;47.99
7075;BME280;3578;51.568;6.932;2023-04-25T09:08:41;54216.19;;;-144.14;46.94
7075;BME280;3578;51.568;6.932;2023-04-25T09:11:08;54198.13;;;-144.14;48.72
7075;BME280;3578;51.568;6.932;2023-04-25T09:13:35;54212.19;;;-144.14;45.49
7075;BME280;3578;51.568;6.932;2023-04-25T09:16:02;54228.22;;;-144.14;43.69
7075;BME280;3578;51.568;6.932;2023-04-25T09:18:31;54180.09;;;-144.14;45.70
7075;BME280;3578;51.568;6.932;2023-04-25T09:21:05;54129.97;;;-144.14;46.59
7075;BME280;3578;51.568;6.932;2023-04-25T09:23:41;54160.06;;;-144.14;43.29
7075;BME280;3578;51.568;6.932;2023-04-25T09:26:08;54186.13;;;-144.14;42.14
7075;BME280;3578;51.568;6.932;2023-04-25T09:28:35;54194.13;;;-144.14;45.37
7075;BME280;3578;51.568;6.932;2023-04-25T09:31:03;54214.19;;;-144.14;44.77
7075;BME280;3578;51.568;6.932;2023-04-25T09:33:33;54216.19;;;-144.14;43.08
7075;BME280;3578;51.568;6.932;2023-04-25T09:36:06;54208.16;;;-144.14;41.88
7075;BME280;3578;51.568;6.932;2023-04-25T09:38:44;54146.03;;;-144.14;42.63
7075;BME280;3578;51.568;6.932;2023-04-25T09:41:11;54182.09;;;-144.14;42.38
7075;BME280;3578;51.568;6.932;2023-04-25T09:43:39;54272.31;;;-144.14;42.04
7075;BME280;3578;51.568;6.932;2023-04-25T09:46:09;54390.59;;;-144.14;40.34
7075;BME280;3578;51.568;6.932;2023-04-25T09:48:37;54424.69;;;-144.14;40.61
7075;BME280;3578;51.568;6.932;2023-04-25T09:51:06;54376.56;;;-144.14;40.16
7075;BME280;3578;51.568;6.932;2023-04-25T09:53:34;54268.31;;;-144.14;39.00
7075;BME280;3578;51.568;6.932;2023-04-25T09:56:06;54113.94;;;-144.14;40.99
7075;BME280;3578;51.568;6.932;2023-04-25T09:58:35;53999.69;;;-144.14;42.11
7075;BME280;3578;51.568;6.932;2023-04-25T10:01:05;53967.63;;;-144.14;43.97
7075;BME280;3578;51.568;6.932;2023-04-25T10:03:35;53991.66;;;-144.14;44.91
7075;BME280;3578;51.568;6.932;2023-04-25T10:06:07;54019.72;;;-144.14;43.69
7075;BME280;3578;51.568;6.932;2023-04-25T10:08:36;54047.78;;;-144.14;44.67
7075;BME280;3578;51.568;6.932;2023-04-25T10:11:08;54019.72;;;-144.14;42.93
7075;BME280;3578;51.568;6.932;2023-04-25T10:13:35;54007.69;;;-144.14;42.79
7075;BME280;3578;51.568;6.932;2023-04-25T10:16:04;54025.75;;;-144.14;42.65
7075;BME280;3578;51.568;6.932;2023-04-25T10:18:32;53999.69;;;-144.14;43.47
7075;BME280;3578;51.568;6.932;2023-04-25T10:21:01;53907.47;;;-144.14;44.59
7075;BME280;3578;51.568;6.932;2023-04-25T10:23:31;53863.38;;;-144.14;45.49
7075;BME280;3578;51.568;6.932;2023-04-25T10:26:00;53825.28;;;-144.14;46.51
7075;BME280;3578;51.568;6.932;2023-04-25T10:28:28;53795.22;;;-144.14;47.54
7075;BME280;3578;51.568;6.932;2023-04-25T10:30:59;53787.22;;;-144.14;50.80
7075;BME280;3578;51.568;6.932;2023-04-25T10:33:33;53819.28;;;-144.14;51.52
7075;BME280;3578;51.568;6.932;2023-04-25T10:36:10;53763.16;;;-144.14;56.26
7075;BME280;3578;51.568;6.932;2023-04-25T10:38:38;53701.03;;;-144.14;63.20
7075;BME280;3578;51.568;6.932;2023-04-25T10:41:06;53630.88;;;-144.14;66.73
7075;BME280;3578;51.568;6.932;2023-04-25T10:43:38;53626.88;;;-144.14;67.58
7075;BME280;3578;51.568;6.932;2023-04-25T10:46:21;53582.78;;;-144.14;65.65
7075;BME280;3578;51.568;6.932;2023-04-25T10:48:50;53606.81;;;-144.14;71.97
7075;BME280;3578;51.568;6.932;2023-04-25T10:51:22;53614.84;;;-144.14;69.60
7075;BME280;3578;51.568;6.932;2023-04-25T10:54:01;53596.78;;;-144.14;70.35
7075;BME280;3578;51.568;6.932;2023-04-25T10:56:30;53622.84;;;-144.14;74.54
7075;BME280;3578;51.568;6.932;2023-04-25T10:59:07;53640.88;;;-144.14;74.12
7075;BME280;3578;51.568;6.932;2023-04-25T11:01:40;53670.97;;;-144.14;71.65
7075;BME280;3578;51.568;6.932;2023-04-25T11:04:20;53691.00;;;-144.14;64.31
7075;BME280;3578;51.568;6.932;2023-04-25T11:07:00;53719.06;;;-144.14;60.25
7075;BME280;3578;51.568;6.932;2023-04-25T11:09:29;53769.16;;;-144.14;59.36
7075;BME280;3578;51.568;6.932;2023-04-25T11:11:57;53781.19;;;-144.14;60.44
7075;BME280;3578;51.568;6.932;2023-04-25T11:14:27;53855.38;;;-144.14;54.14
7075;BME280;3578;51.568;6.932;2023-04-25T11:16:54;53927.53;;;-144.14;54.36
7075;BME280;3578;51.568;6.932;2023-04-25T11:19:23;53963.59;;;-144.14;50.82
7075;BME280;3578;51.568;6.932;2023-04-25T11:21:50;53949.56;;;-144.14;50.47
7075;BME280;3578;51.568;6.932;2023-04-25T11:24:17;53977.63;;;-144.14;50.26
7075;BME280;3578;51.568;6.932;2023-04-25T11:26:47;53953.59;;;-144.14;50.97
7075;BME280;3578;51.568;6.932;2023-04-25T11:29:14;54049.81;;;-144.14;46.17
7075;BME280;3578;51.568;6.932;2023-04-25T11:31:44;54007.69;;;-144.14;47.51
7075;BME280;3578;51.568;6.932;2023-04-25T11:34:16;54011.72;;;-144.14;44.85
7075;BME280;3578;51.568;6.932;2023-04-25T11:36:43;54005.69;;;-144.14;47.62
7075;BME280;3578;51.568;6.932;2023-04-25T11:39:11;54013.72;;;-144.14;45.96
7075;BME280;3578;51.568;6.932;2023-04-25T11:41:39;54061.81;;;-144.14;45.58
7075;BME280;3578;51.568;6.932;2023-04-25T11:44:06;54061.81;;;-144.14;45.79
7075;BME280;3578;51.568;6.932;2023-04-25T11:46:34;54075.84;;;-144.14;45.50
7075;BME280;3578;51.568;6.932;2023-04-25T11:49:02;54079.88;;;-144.14;45.16
7075;BME280;3578;51.568;6.932;2023-04-25T11:51:30;54150.03;;;-144.14;44.78
7075;BME280;3578;51.568;6.932;2023-04-25T11:53:57;54142.00;;;-144.14;42.90
7075;BME280;3578;51.568;6.932;2023-04-25T11:56:24;54144.00;;;-144.14;43.78
7075;BME280;3578;51.568;6.932;2023-04-25T11:58:55;54123.97;;;-144.14;42.63
7075;BME280;3578;51.568;6.932;2023-04-25T12:01:28;54017.72;;;-144.14;45.11
7075;BME280;3578;51.568;6.932;2023-04-25T12:03:54;53971.63;;;-144.14;45.19
7075;BME280;3578;51.568;6.932;2023-04-25T12:06:26;53929.53;;;-144.14;44.62
7075;BME280;3578;51.568;6.932;2023-04-25T12:09:02;53987.66;;;-144.14;48.35
7075;BME280;3578;51.568;6.932;2023-04-25T12:11:30;54015.72;;;-144.14;48.66
7075;BME280;3578;51.568;6.932;2023-04-25T12:14:02;54023.75;;;-144.14;45.92
7075;BME280;3578;51.568;6.932;2023-04-25T12:16:40;54001.69;;;-144.14;43.64
7075;BME280;3578;51.568;6.932;2023-04-25T12:19:07;53909.47;;;-144.14;43.75
7075;BME280;3578;51.568;6.932;2023-04-25T12:21:35;53875.41;;;-144.14;44.27
7075;BME280;3578;51.568;6.932;2023-04-25T12:24:11;53823.28;;;-144.14;46.91
7075;BME280;3578;51.568;6.932;2023-04-25T12:26:49;53799.25;;;-144.14;49.28
7075;BME280;3578;51.568;6.932;2023-04-25T12:29:23;53731.09;;;-144.14;50.77
7075;BME280;3578;51.568;6.932;2023-04-25T12:31:51;53715.06;;;-144.14;53.64
7075;BME280;3578;51.568;6.932;2023-04-25T12:34:19;53755.13;;;-144.14;57.35
7075;BME280;3578;51.568;6.932;2023-04-25T12:36:49;53769.16;;;-144.14;63.49
7075;BME280;3578;51.568;6.932;2023-04-25T12:39:16;53739.09;;;-144.14;64.13
7075;BME280;3578;51.568;6.932;2023-04-25T12:41:43;53775.19;;;-144.14;62.10
7075;BME280;3578;51.568;6.932;2023-04-25T12:44:11;53839.31;;;-144.14;59.39
7075;BME280;3578;51.568;6.932;2023-04-25T12:46:38;53873.41;;;-144.14;60.43
7075;BME280;3578;51.568;6.932;2023-04-25T12:49:06;53897.47;;;-144.14;60.40
7075;BME280;3578;51.568;6.932;2023-04-25T12:51:34;53891.44;;;-144.14;60.05
7075;BME280;3578;51.568;6.932;2023-04-25T12:54:04;53879.41;;;-144.14;58.03
7075;BME280;3578;51.568;6.932;2023-04-25T12:56:31;53841.34;;;-144.14;58.33
7075;BME280;3578;51.568;6.932;2023-04-25T12:58:59;53855.38;;;-144.14;55.94
7075;BME280;3578;51.568;6.932;2023-04-25T13:01:26;53779.19;;;-144.14;58.67
7075;BME280;3578;51.568;6.932;2023-04-25T13:03:53;53731.09;;;-144.14;64.12